Terminal Aerodrome Forecast
Issued by NWS

Home | Current Version | Previous Version | Graphics & Text | Print | Product List | Glossary On
Versions: 1 2 3 4 5 6 7 8 9 10 11 12 13 14 15 16 17 18 19 20
000
FTUS43 KBIS 232054 AAB
TAFJMS
TAF AMD
KJMS 232054Z 2321/2418 11013G20KT 5SM SHRA VCTS OVC006CB
     FM232300 11013G20KT P6SM OVC005
     FM241200 14012G19KT P6SM BKN040
     FM241400 14012G19KT P6SM BKN015=

USA.gov is the U.S. government's official web portal to all federal, state and local government web resources and services.